Accueil
METAR-TAF:

METAR-TAF

Aéroports :

Base aérienne

Niederstetten, Allemagne

latitude: 49-24N, longitude: 009-58E, altitude: 468 m

Observation

Le bulletin a été fait il y a 43 minutes, à 22:20 UTC
Vent 8 kt de nord-ouest
Température 19°C
Humidité 78%
Pression 1019 hPa
Visibilité 10 km ou plus
Quelques nuages à une hauteur de 18000 ft

METAR: ETHN 172220Z 32008KT 9999 FEW180 19/15 Q1019 BLU+

Heure: 01:03 (23:03 UTC)

Prévision

Le bulletin a été fait il y a 13 heures et 32 minutes, à 09:31 UTC
Prévision valable du 17 à 08 UTC au 17 à 17 UTC
Vent 5 kt de sud/sud-est
Visibilité: 1015 m
Quelques nuages à une hauteur de 5000 ft
Nuages épars à une hauteur de 30000 ft

TAF: ETHN 170931Z 1708/1717 16005KT 9999 NSW FEW050 SCT300 CANCEL 1015

Observations et prévisions météorologiques de plus de 4000 aéroports (messages METAR et TAF).

Les stations disponibles sont représentées par des disques jaunes et rouges sur la carte.

Passer la souris dessus pour voir le nom de la station.

Cliquer dessus pour voir les observations et prévisions météorologiques.

Pour changer de carte: cliquez sur les boutons verts avec une croix noire pour zoomer, sur le bouton vert avec un tiret pour effectuer un zoom arrière, ou sur les flèches vertes pour les cartes adjacentes.


METAR-TAF: